sensor_id;sensor_type;location;lat;lon;timestamp;P1;durP1;ratioP1;P2;durP2;ratioP2
69240;SDS011;56352;55.750;13.198;2023-11-21T00:00:24;7.30;;;4.80;;
69240;SDS011;56352;55.750;13.198;2023-11-21T00:02:51;7.97;;;4.82;;
69240;SDS011;56352;55.750;13.198;2023-11-21T00:05:17;6.35;;;4.22;;
69240;SDS011;56352;55.750;13.198;2023-11-21T00:07:44;7.45;;;4.63;;
69240;SDS011;56352;55.750;13.198;2023-11-21T00:10:11;6.80;;;4.32;;
69240;SDS011;56352;55.750;13.198;2023-11-21T00:12:38;6.05;;;4.40;;
69240;SDS011;56352;55.750;13.198;2023-11-21T00:15:05;6.82;;;3.72;;
69240;SDS011;56352;55.750;13.198;2023-11-21T00:17:32;6.05;;;4.03;;
69240;SDS011;56352;55.750;13.198;2023-11-21T00:19:58;6.70;;;4.50;;
69240;SDS011;56352;55.750;13.198;2023-11-21T00:22:25;6.00;;;4.10;;
69240;SDS011;56352;55.750;13.198;2023-11-21T00:24:52;6.55;;;4.22;;
69240;SDS011;56352;55.750;13.198;2023-11-21T00:27:18;8.10;;;4.35;;
69240;SDS011;56352;55.750;13.198;2023-11-21T00:29:45;6.90;;;4.05;;
69240;SDS011;56352;55.750;13.198;2023-11-21T00:32:11;8.35;;;4.05;;
69240;SDS011;56352;55.750;13.198;2023-11-21T00:34:38;6.57;;;4.50;;
69240;SDS011;56352;55.750;13.198;2023-11-21T00:37:05;6.63;;;3.67;;
69240;SDS011;56352;55.750;13.198;2023-11-21T00:39:31;7.78;;;3.78;;
69240;SDS011;56352;55.750;13.198;2023-11-21T00:41:59;5.90;;;4.03;;
69240;SDS011;56352;55.750;13.198;2023-11-21T00:44:25;7.18;;;4.28;;
69240;SDS011;56352;55.750;13.198;2023-11-21T00:46:52;6.38;;;4.25;;
69240;SDS011;56352;55.750;13.198;2023-11-21T00:49:18;7.38;;;4.22;;
69240;SDS011;56352;55.750;13.198;2023-11-21T00:51:45;6.68;;;4.45;;
69240;SDS011;56352;55.750;13.198;2023-11-21T00:54:12;9.27;;;4.72;;
69240;SDS011;56352;55.750;13.198;2023-11-21T00:56:38;7.60;;;4.78;;
69240;SDS011;56352;55.750;13.198;2023-11-21T00:59:06;6.03;;;4.05;;
69240;SDS011;56352;55.750;13.198;2023-11-21T01:01:33;7.85;;;4.40;;
69240;SDS011;56352;55.750;13.198;2023-11-21T01:04:00;7.55;;;4.53;;
69240;SDS011;56352;55.750;13.198;2023-11-21T01:06:27;8.32;;;3.90;;
69240;SDS011;56352;55.750;13.198;2023-11-21T01:08:53;6.32;;;4.32;;
69240;SDS011;56352;55.750;13.198;2023-11-21T01:11:20;6.50;;;4.43;;
69240;SDS011;56352;55.750;13.198;2023-11-21T01:13:47;7.57;;;4.70;;
69240;SDS011;56352;55.750;13.198;2023-11-21T01:16:14;9.43;;;4.53;;
69240;SDS011;56352;55.750;13.198;2023-11-21T01:18:40;9.45;;;4.85;;
69240;SDS011;56352;55.750;13.198;2023-11-21T01:21:07;8.45;;;5.30;;
69240;SDS011;56352;55.750;13.198;2023-11-21T01:23:35;11.70;;;4.85;;
69240;SDS011;56352;55.750;13.198;2023-11-21T01:26:01;6.97;;;4.30;;
69240;SDS011;56352;55.750;13.198;2023-11-21T01:28:28;7.95;;;4.40;;
69240;SDS011;56352;55.750;13.198;2023-11-21T01:30:54;9.38;;;4.75;;
69240;SDS011;56352;55.750;13.198;2023-11-21T01:33:23;6.63;;;4.43;;
69240;SDS011;56352;55.750;13.198;2023-11-21T01:35:51;6.97;;;4.70;;
69240;SDS011;56352;55.750;13.198;2023-11-21T01:38:21;9.80;;;5.32;;
69240;SDS011;56352;55.750;13.198;2023-11-21T01:40:48;7.07;;;4.28;;
69240;SDS011;56352;55.750;13.198;2023-11-21T01:43:15;7.88;;;4.63;;
69240;SDS011;56352;55.750;13.198;2023-11-21T01:45:43;11.30;;;4.88;;
69240;SDS011;56352;55.750;13.198;2023-11-21T01:48:11;8.70;;;4.65;;
69240;SDS011;56352;55.750;13.198;2023-11-21T01:50:39;11.13;;;5.22;;
69240;SDS011;56352;55.750;13.198;2023-11-21T01:53:06;9.55;;;4.78;;
69240;SDS011;56352;55.750;13.198;2023-11-21T01:55:33;8.60;;;4.75;;
69240;SDS011;56352;55.750;13.198;2023-11-21T01:58:00;8.98;;;4.88;;
69240;SDS011;56352;55.750;13.198;2023-11-21T02:00:28;8.38;;;5.22;;
69240;SDS011;56352;55.750;13.198;2023-11-21T02:02:55;8.43;;;5.07;;
69240;SDS011;56352;55.750;13.198;2023-11-21T02:05:23;7.22;;;4.95;;
69240;SDS011;56352;55.750;13.198;2023-11-21T02:07:49;8.80;;;4.93;;
69240;SDS011;56352;55.750;13.198;2023-11-21T02:10:20;6.60;;;4.15;;
69240;SDS011;56352;55.750;13.198;2023-11-21T02:12:50;8.43;;;4.80;;
69240;SDS011;56352;55.750;13.198;2023-11-21T02:15:19;9.90;;;4.60;;
69240;SDS011;56352;55.750;13.198;2023-11-21T02:17:50;6.88;;;4.60;;
69240;SDS011;56352;55.750;13.198;2023-11-21T02:20:19;8.27;;;4.55;;
69240;SDS011;56352;55.750;13.198;2023-11-21T02:22:53;7.63;;;4.47;;
69240;SDS011;56352;55.750;13.198;2023-11-21T02:25:27;8.20;;;4.65;;
69240;SDS011;56352;55.750;13.198;2023-11-21T02:27:55;7.55;;;4.53;;
69240;SDS011;56352;55.750;13.198;2023-11-21T02:30:22;9.85;;;4.90;;
69240;SDS011;56352;55.750;13.198;2023-11-21T02:32:48;7.22;;;4.88;;
69240;SDS011;56352;55.750;13.198;2023-11-21T02:35:15;7.63;;;4.80;;
69240;SDS011;56352;55.750;13.198;2023-11-21T02:37:44;9.18;;;4.80;;
69240;SDS011;56352;55.750;13.198;2023-11-21T02:40:11;9.00;;;4.68;;
69240;SDS011;56352;55.750;13.198;2023-11-21T02:42:39;7.97;;;4.57;;
69240;SDS011;56352;55.750;13.198;2023-11-21T02:45:07;7.75;;;4.88;;
69240;SDS011;56352;55.750;13.198;2023-11-21T02:47:34;8.32;;;5.13;;
69240;SDS011;56352;55.750;13.198;2023-11-21T02:50:01;6.43;;;4.05;;
69240;SDS011;56352;55.750;13.198;2023-11-21T02:52:27;7.20;;;4.63;;
69240;SDS011;56352;55.750;13.198;2023-11-21T02:54:54;8.27;;;4.97;;
69240;SDS011;56352;55.750;13.198;2023-11-21T02:57:20;10.00;;;4.53;;
69240;SDS011;56352;55.750;13.198;2023-11-21T02:59:47;8.02;;;4.60;;
69240;SDS011;56352;55.750;13.198;2023-11-21T03:02:13;10.32;;;4.80;;
69240;SDS011;56352;55.750;13.198;2023-11-21T03:04:40;7.25;;;4.55;;
69240;SDS011;56352;55.750;13.198;2023-11-21T03:07:06;8.35;;;4.57;;
69240;SDS011;56352;55.750;13.198;2023-11-21T03:09:33;7.75;;;4.40;;
69240;SDS011;56352;55.750;13.198;2023-11-21T03:11:59;7.60;;;4.72;;
69240;SDS011;56352;55.750;13.198;2023-11-21T03:14:26;6.47;;;4.32;;
69240;SDS011;56352;55.750;13.198;2023-11-21T03:16:52;7.90;;;4.60;;
69240;SDS011;56352;55.750;13.198;2023-11-21T03:19:19;8.00;;;4.53;;
69240;SDS011;56352;55.750;13.198;2023-11-21T03:21:45;6.85;;;4.65;;
69240;SDS011;56352;55.750;13.198;2023-11-21T03:24:13;6.10;;;4.22;;
69240;SDS011;56352;55.750;13.198;2023-11-21T03:26:39;7.60;;;4.78;;
69240;SDS011;56352;55.750;13.198;2023-11-21T03:29:06;9.07;;;4.55;;
69240;SDS011;56352;55.750;13.198;2023-11-21T03:31:32;7.60;;;4.43;;
69240;SDS011;56352;55.750;13.198;2023-11-21T03:33:59;7.38;;;3.83;;
69240;SDS011;56352;55.750;13.198;2023-11-21T03:36:25;6.57;;;3.92;;
69240;SDS011;56352;55.750;13.198;2023-11-21T03:38:52;6.13;;;4.05;;
69240;SDS011;56352;55.750;13.198;2023-11-21T03:41:19;6.43;;;3.53;;
69240;SDS011;56352;55.750;13.198;2023-11-21T03:43:45;5.25;;;3.40;;
69240;SDS011;56352;55.750;13.198;2023-11-21T03:46:12;8.82;;;4.43;;
69240;SDS011;56352;55.750;13.198;2023-11-21T03:48:38;7.47;;;4.40;;
69240;SDS011;56352;55.750;13.198;2023-11-21T03:51:05;9.63;;;3.90;;
69240;SDS011;56352;55.750;13.198;2023-11-21T03:53:32;6.90;;;4.15;;
69240;SDS011;56352;55.750;13.198;2023-11-21T03:55:58;8.23;;;3.88;;
69240;SDS011;56352;55.750;13.198;2023-11-21T03:58:25;6.28;;;3.70;;
69240;SDS011;56352;55.750;13.198;2023-11-21T04:00:51;8.10;;;4.78;;
69240;SDS011;56352;55.750;13.198;2023-11-21T04:03:18;5.78;;;3.58;;
69240;SDS011;56352;55.750;13.198;2023-11-21T04:05:46;5.93;;;3.97;;
69240;SDS011;56352;55.750;13.198;2023-11-21T04:08:13;5.70;;;3.78;;
69240;SDS011;56352;55.750;13.198;2023-11-21T04:10:39;6.03;;;3.60;;
69240;SDS011;56352;55.750;13.198;2023-11-21T04:13:06;7.22;;;4.22;;
69240;SDS011;56352;55.750;13.198;2023-11-21T04:15:32;6.90;;;3.53;;
69240;SDS011;56352;55.750;13.198;2023-11-21T04:17:59;7.72;;;3.85;;
69240;SDS011;56352;55.750;13.198;2023-11-21T04:20:26;6.47;;;4.05;;
69240;SDS011;56352;55.750;13.198;2023-11-21T04:22:52;6.97;;;4.10;;
69240;SDS011;56352;55.750;13.198;2023-11-21T04:25:19;6.00;;;3.40;;
69240;SDS011;56352;55.750;13.198;2023-11-21T04:27:45;7.43;;;3.53;;
69240;SDS011;56352;55.750;13.198;2023-11-21T04:30:12;8.43;;;4.00;;
69240;SDS011;56352;55.750;13.198;2023-11-21T04:32:39;10.20;;;4.47;;
69240;SDS011;56352;55.750;13.198;2023-11-21T04:35:06;6.60;;;3.67;;
69240;SDS011;56352;55.750;13.198;2023-11-21T04:37:33;7.57;;;4.05;;
69240;SDS011;56352;55.750;13.198;2023-11-21T04:39:59;7.32;;;4.32;;
69240;SDS011;56352;55.750;13.198;2023-11-21T04:42:27;7.90;;;4.15;;
69240;SDS011;56352;55.750;13.198;2023-11-21T04:44:55;7.22;;;4.30;;
69240;SDS011;56352;55.750;13.198;2023-11-21T04:47:21;9.10;;;3.95;;
69240;SDS011;56352;55.750;13.198;2023-11-21T04:49:48;8.77;;;4.53;;
69240;SDS011;56352;55.750;13.198;2023-11-21T04:52:15;6.57;;;4.03;;
69240;SDS011;56352;55.750;13.198;2023-11-21T04:54:41;7.60;;;4.00;;
69240;SDS011;56352;55.750;13.198;2023-11-21T04:57:09;6.45;;;3.70;;
69240;SDS011;56352;55.750;13.198;2023-11-21T04:59:35;5.90;;;3.67;;
69240;SDS011;56352;55.750;13.198;2023-11-21T05:02:02;6.32;;;3.78;;
69240;SDS011;56352;55.750;13.198;2023-11-21T05:04:29;6.13;;;3.85;;
69240;SDS011;56352;55.750;13.198;2023-11-21T05:06:56;8.65;;;3.67;;
69240;SDS011;56352;55.750;13.198;2023-11-21T05:09:23;6.03;;;3.58;;
69240;SDS011;56352;55.750;13.198;2023-11-21T05:11:49;6.10;;;3.90;;
69240;SDS011;56352;55.750;13.198;2023-11-21T05:14:16;5.85;;;3.72;;
69240;SDS011;56352;55.750;13.198;2023-11-21T05:16:45;6.15;;;3.40;;
69240;SDS011;56352;55.750;13.198;2023-11-21T05:19:11;6.72;;;4.20;;
69240;SDS011;56352;55.750;13.198;2023-11-21T05:21:39;5.18;;;3.30;;
69240;SDS011;56352;55.750;13.198;2023-11-21T05:24:06;6.10;;;3.95;;
69240;SDS011;56352;55.750;13.198;2023-11-21T05:26:35;6.15;;;4.22;;
69240;SDS011;56352;55.750;13.198;2023-11-21T05:29:02;7.82;;;3.67;;
69240;SDS011;56352;55.750;13.198;2023-11-21T05:31:29;7.22;;;3.75;;
69240;SDS011;56352;55.750;13.198;2023-11-21T05:33:55;8.60;;;4.47;;
69240;SDS011;56352;55.750;13.198;2023-11-21T05:36:22;7.47;;;4.57;;
69240;SDS011;56352;55.750;13.198;2023-11-21T05:38:48;5.47;;;3.97;;
69240;SDS011;56352;55.750;13.198;2023-11-21T05:41:15;6.47;;;4.05;;
69240;SDS011;56352;55.750;13.198;2023-11-21T05:43:41;16.55;;;4.18;;
69240;SDS011;56352;55.750;13.198;2023-11-21T05:46:08;6.05;;;3.38;;
69240;SDS011;56352;55.750;13.198;2023-11-21T05:48:35;6.75;;;3.42;;
69240;SDS011;56352;55.750;13.198;2023-11-21T05:51:06;7.35;;;3.85;;
69240;SDS011;56352;55.750;13.198;2023-11-21T05:55:59;7.30;;;3.80;;
69240;SDS011;56352;55.750;13.198;2023-11-21T05:58:26;6.05;;;3.40;;
69240;SDS011;56352;55.750;13.198;2023-11-21T06:00:52;5.63;;;3.80;;
69240;SDS011;56352;55.750;13.198;2023-11-21T06:03:22;6.28;;;3.90;;
69240;SDS011;56352;55.750;13.198;2023-11-21T06:05:49;7.75;;;4.15;;
69240;SDS011;56352;55.750;13.198;2023-11-21T06:08:16;5.93;;;3.92;;
69240;SDS011;56352;55.750;13.198;2023-11-21T06:10:43;6.93;;;3.65;;
69240;SDS011;56352;55.750;13.198;2023-11-21T06:13:10;5.47;;;3.83;;
69240;SDS011;56352;55.750;13.198;2023-11-21T06:15:37;5.30;;;3.40;;
69240;SDS011;56352;55.750;13.198;2023-11-21T06:18:03;7.22;;;3.47;;
69240;SDS011;56352;55.750;13.198;2023-11-21T06:20:30;8.90;;;3.30;;
69240;SDS011;56352;55.750;13.198;2023-11-21T06:22:56;9.95;;;3.70;;
69240;SDS011;56352;55.750;13.198;2023-11-21T06:25:23;6.82;;;3.60;;
69240;SDS011;56352;55.750;13.198;2023-11-21T06:27:50;6.05;;;3.30;;
69240;SDS011;56352;55.750;13.198;2023-11-21T06:30:18;4.60;;;3.20;;
69240;SDS011;56352;55.750;13.198;2023-11-21T06:32:46;6.95;;;3.30;;
69240;SDS011;56352;55.750;13.198;2023-11-21T06:35:14;6.70;;;3.17;;
69240;SDS011;56352;55.750;13.198;2023-11-21T06:37:42;5.18;;;3.10;;
69240;SDS011;56352;55.750;13.198;2023-11-21T06:40:15;6.40;;;3.45;;
69240;SDS011;56352;55.750;13.198;2023-11-21T06:42:41;6.05;;;2.92;;
69240;SDS011;56352;55.750;13.198;2023-11-21T06:45:08;8.50;;;3.08;;
69240;SDS011;56352;55.750;13.198;2023-11-21T06:47:37;7.05;;;3.00;;
69240;SDS011;56352;55.750;13.198;2023-11-21T06:50:05;5.13;;;2.63;;
69240;SDS011;56352;55.750;13.198;2023-11-21T06:52:33;4.93;;;3.15;;
69240;SDS011;56352;55.750;13.198;2023-11-21T06:54:59;5.05;;;3.10;;
69240;SDS011;56352;55.750;13.198;2023-11-21T06:57:26;5.57;;;3.95;;
69240;SDS011;56352;55.750;13.198;2023-11-21T06:59:53;5.25;;;3.28;;
69240;SDS011;56352;55.750;13.198;2023-11-21T07:02:19;6.38;;;3.63;;
69240;SDS011;56352;55.750;13.198;2023-11-21T07:04:46;5.72;;;3.30;;
69240;SDS011;56352;55.750;13.198;2023-11-21T07:07:14;4.70;;;3.00;;
69240;SDS011;56352;55.750;13.198;2023-11-21T07:09:40;5.47;;;3.42;;
69240;SDS011;56352;55.750;13.198;2023-11-21T07:12:07;5.40;;;2.78;;
69240;SDS011;56352;55.750;13.198;2023-11-21T07:14:34;5.95;;;3.08;;
69240;SDS011;56352;55.750;13.198;2023-11-21T07:17:01;5.22;;;3.20;;
69240;SDS011;56352;55.750;13.198;2023-11-21T07:19:28;7.03;;;3.28;;
69240;SDS011;56352;55.750;13.198;2023-11-21T07:21:55;6.10;;;3.20;;
69240;SDS011;56352;55.750;13.198;2023-11-21T07:24:22;4.72;;;3.00;;
69240;SDS011;56352;55.750;13.198;2023-11-21T07:26:53;4.20;;;3.00;;
69240;SDS011;56352;55.750;13.198;2023-11-21T07:29:23;5.55;;;2.95;;
69240;SDS011;56352;55.750;13.198;2023-11-21T07:31:54;4.93;;;2.80;;
69240;SDS011;56352;55.750;13.198;2023-11-21T07:34:21;6.95;;;3.20;;
69240;SDS011;56352;55.750;13.198;2023-11-21T07:36:48;5.03;;;3.05;;
69240;SDS011;56352;55.750;13.198;2023-11-21T07:39:14;7.25;;;3.25;;
69240;SDS011;56352;55.750;13.198;2023-11-21T07:41:42;6.45;;;3.35;;
69240;SDS011;56352;55.750;13.198;2023-11-21T07:44:18;6.55;;;3.00;;
69240;SDS011;56352;55.750;13.198;2023-11-21T07:46:46;6.18;;;3.40;;
69240;SDS011;56352;55.750;13.198;2023-11-21T07:49:13;6.78;;;2.63;;
69240;SDS011;56352;55.750;13.198;2023-11-21T07:51:43;6.07;;;3.30;;
69240;SDS011;56352;55.750;13.198;2023-11-21T07:54:10;5.38;;;2.67;;
69240;SDS011;56352;55.750;13.198;2023-11-21T07:56:37;4.85;;;2.80;;
69240;SDS011;56352;55.750;13.198;2023-11-21T07:59:04;4.88;;;2.58;;
69240;SDS011;56352;55.750;13.198;2023-11-21T08:01:31;5.88;;;3.00;;
69240;SDS011;56352;55.750;13.198;2023-11-21T08:03:58;4.22;;;2.53;;
69240;SDS011;56352;55.750;13.198;2023-11-21T08:06:28;4.93;;;2.60;;
69240;SDS011;56352;55.750;13.198;2023-11-21T08:08:55;4.05;;;2.53;;
69240;SDS011;56352;55.750;13.198;2023-11-21T08:11:21;4.25;;;2.60;;
69240;SDS011;56352;55.750;13.198;2023-11-21T08:13:48;4.18;;;2.38;;
69240;SDS011;56352;55.750;13.198;2023-11-21T08:16:15;5.40;;;2.78;;
69240;SDS011;56352;55.750;13.198;2023-11-21T08:18:43;4.10;;;2.38;;
69240;SDS011;56352;55.750;13.198;2023-11-21T08:21:12;4.10;;;2.25;;
69240;SDS011;56352;55.750;13.198;2023-11-21T08:23:38;5.50;;;2.95;;
69240;SDS011;56352;55.750;13.198;2023-11-21T08:26:05;5.10;;;2.58;;
69240;SDS011;56352;55.750;13.198;2023-11-21T08:28:32;6.07;;;2.85;;
69240;SDS011;56352;55.750;13.198;2023-11-21T08:30:58;3.83;;;2.38;;
69240;SDS011;56352;55.750;13.198;2023-11-21T08:33:26;4.68;;;2.33;;
69240;SDS011;56352;55.750;13.198;2023-11-21T08:35:53;4.15;;;2.50;;
69240;SDS011;56352;55.750;13.198;2023-11-21T08:38:20;4.03;;;2.55;;
69240;SDS011;56352;55.750;13.198;2023-11-21T08:40:46;5.25;;;2.40;;
69240;SDS011;56352;55.750;13.198;2023-11-21T08:43:13;5.28;;;2.80;;
69240;SDS011;56352;55.750;13.198;2023-11-21T08:45:41;3.92;;;2.42;;
69240;SDS011;56352;55.750;13.198;2023-11-21T08:48:07;4.13;;;2.63;;
69240;SDS011;56352;55.750;13.198;2023-11-21T08:50:34;6.03;;;2.90;;
69240;SDS011;56352;55.750;13.198;2023-11-21T08:53:01;5.32;;;2.38;;
69240;SDS011;56352;55.750;13.198;2023-11-21T08:55:28;4.28;;;2.60;;
69240;SDS011;56352;55.750;13.198;2023-11-21T08:57:55;3.58;;;2.40;;
69240;SDS011;56352;55.750;13.198;2023-11-21T09:00:24;3.72;;;2.45;;
69240;SDS011;56352;55.750;13.198;2023-11-21T09:02:50;5.13;;;2.63;;
69240;SDS011;56352;55.750;13.198;2023-11-21T09:05:18;2.97;;;1.98;;
69240;SDS011;56352;55.750;13.198;2023-11-21T09:07:45;3.60;;;2.25;;
69240;SDS011;56352;55.750;13.198;2023-11-21T09:10:12;3.10;;;2.05;;
69240;SDS011;56352;55.750;13.198;2023-11-21T09:12:39;5.95;;;2.60;;
69240;SDS011;56352;55.750;13.198;2023-11-21T09:15:06;2.50;;;1.92;;
69240;SDS011;56352;55.750;13.198;2023-11-21T09:17:33;3.22;;;2.20;;
69240;SDS011;56352;55.750;13.198;2023-11-21T09:20:03;3.85;;;1.70;;
69240;SDS011;56352;55.750;13.198;2023-11-21T09:22:32;4.55;;;2.30;;
69240;SDS011;56352;55.750;13.198;2023-11-21T09:24:59;2.80;;;1.77;;
69240;SDS011;56352;55.750;13.198;2023-11-21T09:27:26;4.20;;;2.45;;
69240;SDS011;56352;55.750;13.198;2023-11-21T09:29:52;4.85;;;1.95;;
69240;SDS011;56352;55.750;13.198;2023-11-21T09:32:20;5.13;;;2.20;;
69240;SDS011;56352;55.750;13.198;2023-11-21T09:34:48;4.68;;;2.25;;
69240;SDS011;56352;55.750;13.198;2023-11-21T09:37:15;3.03;;;1.85;;
69240;SDS011;56352;55.750;13.198;2023-11-21T09:39:42;2.83;;;1.92;;
69240;SDS011;56352;55.750;13.198;2023-11-21T09:42:32;2.95;;;2.05;;
69240;SDS011;56352;55.750;13.198;2023-11-21T09:47:50;3.92;;;1.85;;
69240;SDS011;56352;55.750;13.198;2023-11-21T09:50:18;3.70;;;2.20;;
69240;SDS011;56352;55.750;13.198;2023-11-21T09:55:34;3.22;;;1.67;;
69240;SDS011;56352;55.750;13.198;2023-11-21T09:58:02;2.67;;;1.65;;
69240;SDS011;56352;55.750;13.198;2023-11-21T10:00:29;3.67;;;1.92;;
69240;SDS011;56352;55.750;13.198;2023-11-21T10:02:59;3.50;;;1.50;;
69240;SDS011;56352;55.750;13.198;2023-11-21T10:05:26;2.15;;;1.52;;
69240;SDS011;56352;55.750;13.198;2023-11-21T10:07:55;2.97;;;1.60;;
69240;SDS011;56352;55.750;13.198;2023-11-21T10:10:24;2.05;;;1.30;;
69240;SDS011;56352;55.750;13.198;2023-11-21T10:12:51;2.88;;;1.75;;
69240;SDS011;56352;55.750;13.198;2023-11-21T10:15:22;3.03;;;1.88;;
69240;SDS011;56352;55.750;13.198;2023-11-21T10:17:49;3.58;;;2.08;;
69240;SDS011;56352;55.750;13.198;2023-11-21T10:20:16;2.78;;;1.58;;
69240;SDS011;56352;55.750;13.198;2023-11-21T10:22:43;2.00;;;1.65;;
69240;SDS011;56352;55.750;13.198;2023-11-21T10:25:10;3.05;;;1.60;;
69240;SDS011;56352;55.750;13.198;2023-11-21T10:27:37;2.55;;;1.65;;
69240;SDS011;56352;55.750;13.198;2023-11-21T10:30:06;2.20;;;1.65;;
69240;SDS011;56352;55.750;13.198;2023-11-21T10:32:32;2.88;;;1.67;;
69240;SDS011;56352;55.750;13.198;2023-11-21T10:34:59;2.83;;;2.05;;
69240;SDS011;56352;55.750;13.198;2023-11-21T10:37:33;1.88;;;1.48;;
69240;SDS011;56352;55.750;13.198;2023-11-21T10:39:59;2.95;;;1.65;;
69240;SDS011;56352;55.750;13.198;2023-11-21T10:42:26;4.20;;;2.00;;
69240;SDS011;56352;55.750;13.198;2023-11-21T10:47:22;3.65;;;2.10;;
69240;SDS011;56352;55.750;13.198;2023-11-21T10:49:50;3.55;;;1.80;;
69240;SDS011;56352;55.750;13.198;2023-11-21T10:52:19;4.15;;;1.65;;
69240;SDS011;56352;55.750;13.198;2023-11-21T10:54:49;3.95;;;1.63;;
69240;SDS011;56352;55.750;13.198;2023-11-21T10:57:17;4.07;;;1.73;;
69240;SDS011;56352;55.750;13.198;2023-11-21T10:59:46;2.08;;;1.40;;
69240;SDS011;56352;55.750;13.198;2023-11-21T11:02:25;4.03;;;1.98;;
69240;SDS011;56352;55.750;13.198;2023-11-21T11:04:55;2.25;;;1.50;;
69240;SDS011;56352;55.750;13.198;2023-11-21T11:07:25;2.88;;;1.70;;
69240;SDS011;56352;55.750;13.198;2023-11-21T11:09:55;3.00;;;1.65;;
69240;SDS011;56352;55.750;13.198;2023-11-21T11:12:23;3.17;;;1.48;;
69240;SDS011;56352;55.750;13.198;2023-11-21T11:14:51;2.78;;;1.65;;
69240;SDS011;56352;55.750;13.198;2023-11-21T11:17:21;2.88;;;1.80;;
69240;SDS011;56352;55.750;13.198;2023-11-21T11:19:48;2.95;;;1.70;;
69240;SDS011;56352;55.750;13.198;2023-11-21T11:35:34;3.40;;;1.60;;
69240;SDS011;56352;55.750;13.198;2023-11-21T11:38:04;3.42;;;1.80;;
69240;SDS011;56352;55.750;13.198;2023-11-21T11:40:40;2.53;;;1.58;;
69240;SDS011;56352;55.750;13.198;2023-11-21T11:43:07;2.45;;;1.52;;
69240;SDS011;56352;55.750;13.198;2023-11-21T11:45:34;2.25;;;1.80;;
69240;SDS011;56352;55.750;13.198;2023-11-21T11:48:10;4.00;;;1.90;;
69240;SDS011;56352;55.750;13.198;2023-11-21T11:51:23;3.10;;;1.73;;
69240;SDS011;56352;55.750;13.198;2023-11-21T11:53:40;2.72;;;1.40;;
69240;SDS011;56352;55.750;13.198;2023-11-21T11:58:47;4.00;;;2.00;;
69240;SDS011;56352;55.750;13.198;2023-11-21T12:01:16;3.08;;;2.08;;
69240;SDS011;56352;55.750;13.198;2023-11-21T12:03:42;5.27;;;3.00;;
69240;SDS011;56352;55.750;13.198;2023-11-21T12:06:10;4.57;;;2.60;;
69240;SDS011;56352;55.750;13.198;2023-11-21T12:08:42;5.85;;;2.28;;
69240;SDS011;56352;55.750;13.198;2023-11-21T12:11:11;3.08;;;2.03;;
69240;SDS011;56352;55.750;13.198;2023-11-21T12:13:38;3.67;;;1.70;;
69240;SDS011;56352;55.750;13.198;2023-11-21T12:16:05;4.10;;;1.95;;
69240;SDS011;56352;55.750;13.198;2023-11-21T12:18:32;2.15;;;1.45;;
69240;SDS011;56352;55.750;13.198;2023-11-21T12:20:59;2.38;;;1.50;;
69240;SDS011;56352;55.750;13.198;2023-11-21T12:23:25;4.03;;;1.77;;
69240;SDS011;56352;55.750;13.198;2023-11-21T12:25:52;4.07;;;1.67;;
69240;SDS011;56352;55.750;13.198;2023-11-21T12:28:19;2.55;;;1.80;;
69240;SDS011;56352;55.750;13.198;2023-11-21T12:30:48;3.37;;;1.80;;
69240;SDS011;56352;55.750;13.198;2023-11-21T12:33:15;3.28;;;1.60;;
69240;SDS011;56352;55.750;13.198;2023-11-21T12:35:43;3.35;;;1.92;;
69240;SDS011;56352;55.750;13.198;2023-11-21T12:38:10;3.33;;;1.90;;
69240;SDS011;56352;55.750;13.198;2023-11-21T12:40:37;4.25;;;2.00;;
69240;SDS011;56352;55.750;13.198;2023-11-21T12:43:04;3.00;;;1.65;;
69240;SDS011;56352;55.750;13.198;2023-11-21T12:45:31;3.85;;;2.25;;
69240;SDS011;56352;55.750;13.198;2023-11-21T12:48:01;4.13;;;1.90;;
69240;SDS011;56352;55.750;13.198;2023-11-21T12:50:34;3.40;;;1.73;;
69240;SDS011;56352;55.750;13.198;2023-11-21T12:53:03;2.92;;;1.83;;
69240;SDS011;56352;55.750;13.198;2023-11-21T12:55:32;2.30;;;1.65;;
69240;SDS011;56352;55.750;13.198;2023-11-21T12:58:00;3.17;;;1.55;;
69240;SDS011;56352;55.750;13.198;2023-11-21T13:00:36;3.05;;;1.52;;
69240;SDS011;56352;55.750;13.198;2023-11-21T13:03:06;3.15;;;1.63;;
69240;SDS011;56352;55.750;13.198;2023-11-21T13:05:34;3.95;;;1.55;;
69240;SDS011;56352;55.750;13.198;2023-11-21T13:08:02;8.13;;;2.00;;
69240;SDS011;56352;55.750;13.198;2023-11-21T13:10:30;3.03;;;2.03;;
69240;SDS011;56352;55.750;13.198;2023-11-21T13:13:00;2.78;;;1.67;;
69240;SDS011;56352;55.750;13.198;2023-11-21T13:15:27;2.40;;;1.65;;
69240;SDS011;56352;55.750;13.198;2023-11-21T13:17:54;2.67;;;1.67;;
69240;SDS011;56352;55.750;13.198;2023-11-21T13:20:22;2.60;;;1.60;;
69240;SDS011;56352;55.750;13.198;2023-11-21T13:25:23;3.72;;;1.90;;
69240;SDS011;56352;55.750;13.198;2023-11-21T13:27:50;3.17;;;1.90;;
69240;SDS011;56352;55.750;13.198;2023-11-21T13:30:17;3.17;;;1.83;;
69240;SDS011;56352;55.750;13.198;2023-11-21T13:32:49;3.22;;;1.60;;
69240;SDS011;56352;55.750;13.198;2023-11-21T13:35:19;2.42;;;1.67;;
69240;SDS011;56352;55.750;13.198;2023-11-21T13:37:57;2.25;;;1.70;;
69240;SDS011;56352;55.750;13.198;2023-11-21T13:40:26;5.15;;;2.10;;
69240;SDS011;56352;55.750;13.198;2023-11-21T13:42:53;2.08;;;1.55;;
69240;SDS011;56352;55.750;13.198;2023-11-21T13:45:21;1.75;;;1.40;;
69240;SDS011;56352;55.750;13.198;2023-11-21T13:47:49;2.72;;;1.65;;
69240;SDS011;56352;55.750;13.198;2023-11-21T13:50:21;6.20;;;1.95;;
69240;SDS011;56352;55.750;13.198;2023-11-21T13:52:53;3.85;;;1.88;;
69240;SDS011;56352;55.750;13.198;2023-11-21T13:55:20;2.55;;;1.50;;
69240;SDS011;56352;55.750;13.198;2023-11-21T13:57:50;3.30;;;2.05;;
69240;SDS011;56352;55.750;13.198;2023-11-21T14:00:18;2.78;;;1.80;;
69240;SDS011;56352;55.750;13.198;2023-11-21T14:03:03;2.25;;;1.77;;
69240;SDS011;56352;55.750;13.198;2023-11-21T14:05:34;4.55;;;2.28;;
69240;SDS011;56352;55.750;13.198;2023-11-21T14:08:01;3.60;;;1.80;;
69240;SDS011;56352;55.750;13.198;2023-11-21T14:10:31;4.00;;;2.03;;
69240;SDS011;56352;55.750;13.198;2023-11-21T14:13:06;5.32;;;2.50;;
69240;SDS011;56352;55.750;13.198;2023-11-21T14:15:32;3.40;;;1.88;;
69240;SDS011;56352;55.750;13.198;2023-11-21T14:18:05;2.83;;;2.05;;
69240;SDS011;56352;55.750;13.198;2023-11-21T14:20:34;4.30;;;1.92;;
69240;SDS011;56352;55.750;13.198;2023-11-21T14:23:05;3.72;;;1.98;;
69240;SDS011;56352;55.750;13.198;2023-11-21T14:25:36;4.32;;;1.88;;
69240;SDS011;56352;55.750;13.198;2023-11-21T14:28:03;4.93;;;2.08;;
69240;SDS011;56352;55.750;13.198;2023-11-21T14:30:32;4.70;;;2.40;;
69240;SDS011;56352;55.750;13.198;2023-11-21T14:33:02;4.28;;;2.40;;
69240;SDS011;56352;55.750;13.198;2023-11-21T14:35:29;3.47;;;2.17;;
69240;SDS011;56352;55.750;13.198;2023-11-21T14:37:59;2.47;;;1.92;;
69240;SDS011;56352;55.750;13.198;2023-11-21T14:40:27;3.17;;;2.08;;
69240;SDS011;56352;55.750;13.198;2023-11-21T14:43:00;3.05;;;1.80;;
69240;SDS011;56352;55.750;13.198;2023-11-21T14:45:26;4.07;;;1.98;;
69240;SDS011;56352;55.750;13.198;2023-11-21T14:47:55;3.22;;;1.88;;
69240;SDS011;56352;55.750;13.198;2023-11-21T14:50:40;3.72;;;2.28;;
69240;SDS011;56352;55.750;13.198;2023-11-21T14:53:36;4.00;;;2.10;;
69240;SDS011;56352;55.750;13.198;2023-11-21T14:56:20;3.63;;;2.20;;
69240;SDS011;56352;55.750;13.198;2023-11-21T14:58:56;2.95;;;2.10;;
69240;SDS011;56352;55.750;13.198;2023-11-21T15:01:23;3.30;;;2.10;;
69240;SDS011;56352;55.750;13.198;2023-11-21T15:04:22;5.20;;;2.55;;
69240;SDS011;56352;55.750;13.198;2023-11-21T15:07:05;3.60;;;2.17;;